sensor_id;sensor_type;location;lat;lon;timestamp;P1;durP1;ratioP1;P2;durP2;ratioP2
56401;SDS011;42299;35.160;26.100;2024-01-07T00:03:46;7.82;;;2.47;;
56401;SDS011;42299;35.160;26.100;2024-01-07T00:09:10;7.75;;;2.35;;
56401;SDS011;42299;35.160;26.100;2024-01-07T00:14:34;9.50;;;2.40;;
56401;SDS011;42299;35.160;26.100;2024-01-07T00:19:57;5.22;;;2.35;;
56401;SDS011;42299;35.160;26.100;2024-01-07T00:25:19;9.55;;;2.78;;
56401;SDS011;42299;35.160;26.100;2024-01-07T00:30:44;14.27;;;3.10;;
56401;SDS011;42299;35.160;26.100;2024-01-07T00:36:06;6.60;;;2.53;;
56401;SDS011;42299;35.160;26.100;2024-01-07T00:41:29;9.35;;;2.50;;
56401;SDS011;42299;35.160;26.100;2024-01-07T00:46:53;7.57;;;2.88;;
56401;SDS011;42299;35.160;26.100;2024-01-07T00:52:15;8.60;;;2.70;;
56401;SDS011;42299;35.160;26.100;2024-01-07T00:57:38;7.25;;;2.67;;
56401;SDS011;42299;35.160;26.100;2024-01-07T01:03:03;9.88;;;2.25;;
56401;SDS011;42299;35.160;26.100;2024-01-07T01:08:25;9.25;;;2.53;;
56401;SDS011;42299;35.160;26.100;2024-01-07T01:13:47;10.07;;;2.60;;
56401;SDS011;42299;35.160;26.100;2024-01-07T01:19:11;15.13;;;3.63;;
56401;SDS011;42299;35.160;26.100;2024-01-07T01:24:34;10.80;;;2.65;;
56401;SDS011;42299;35.160;26.100;2024-01-07T01:29:56;9.60;;;2.63;;
56401;SDS011;42299;35.160;26.100;2024-01-07T01:35:20;9.82;;;2.63;;
56401;SDS011;42299;35.160;26.100;2024-01-07T01:40:42;10.45;;;2.95;;
56401;SDS011;42299;35.160;26.100;2024-01-07T01:46:04;12.85;;;2.78;;
56401;SDS011;42299;35.160;26.100;2024-01-07T01:51:28;11.55;;;3.22;;
56401;SDS011;42299;35.160;26.100;2024-01-07T01:56:51;12.60;;;3.00;;
56401;SDS011;42299;35.160;26.100;2024-01-07T02:02:14;10.63;;;2.97;;
56401;SDS011;42299;35.160;26.100;2024-01-07T02:07:38;10.68;;;2.78;;
56401;SDS011;42299;35.160;26.100;2024-01-07T02:13:01;8.38;;;3.28;;
56401;SDS011;42299;35.160;26.100;2024-01-07T02:18:24;14.25;;;3.78;;
56401;SDS011;42299;35.160;26.100;2024-01-07T02:23:49;13.35;;;3.60;;
56401;SDS011;42299;35.160;26.100;2024-01-07T02:29:13;10.75;;;3.10;;
56401;SDS011;42299;35.160;26.100;2024-01-07T02:34:36;13.30;;;3.80;;
56401;SDS011;42299;35.160;26.100;2024-01-07T02:39:58;13.73;;;3.38;;
56401;SDS011;42299;35.160;26.100;2024-01-07T02:45:22;12.77;;;3.97;;
56401;SDS011;42299;35.160;26.100;2024-01-07T02:50:45;13.48;;;3.40;;
56401;SDS011;42299;35.160;26.100;2024-01-07T02:56:07;13.40;;;3.53;;
56401;SDS011;42299;35.160;26.100;2024-01-07T03:01:32;10.48;;;3.13;;
56401;SDS011;42299;35.160;26.100;2024-01-07T03:07:00;15.30;;;4.38;;
56401;SDS011;42299;35.160;26.100;2024-01-07T03:12:22;16.38;;;3.42;;
56401;SDS011;42299;35.160;26.100;2024-01-07T03:17:46;9.88;;;3.55;;
56401;SDS011;42299;35.160;26.100;2024-01-07T03:23:09;10.43;;;3.30;;
56401;SDS011;42299;35.160;26.100;2024-01-07T03:28:31;13.25;;;3.50;;
56401;SDS011;42299;35.160;26.100;2024-01-07T03:33:55;13.50;;;3.03;;
56401;SDS011;42299;35.160;26.100;2024-01-07T03:39:18;15.95;;;3.55;;
56401;SDS011;42299;35.160;26.100;2024-01-07T03:44:40;14.43;;;3.60;;
56401;SDS011;42299;35.160;26.100;2024-01-07T03:50:05;20.42;;;3.78;;
56401;SDS011;42299;35.160;26.100;2024-01-07T03:55:28;15.35;;;3.70;;
56401;SDS011;42299;35.160;26.100;2024-01-07T04:00:50;16.08;;;4.38;;
56401;SDS011;42299;35.160;26.100;2024-01-07T04:06:14;18.05;;;6.78;;
56401;SDS011;42299;35.160;26.100;2024-01-07T04:11:38;13.00;;;3.22;;
56401;SDS011;42299;35.160;26.100;2024-01-07T04:17:02;16.30;;;4.15;;
56401;SDS011;42299;35.160;26.100;2024-01-07T04:22:27;11.85;;;3.85;;
56401;SDS011;42299;35.160;26.100;2024-01-07T04:27:49;14.65;;;2.50;;
56401;SDS011;42299;35.160;26.100;2024-01-07T04:33:12;18.02;;;3.40;;
56401;SDS011;42299;35.160;26.100;2024-01-07T04:38:36;9.95;;;3.40;;
56401;SDS011;42299;35.160;26.100;2024-01-07T04:43:58;27.27;;;4.68;;
56401;SDS011;42299;35.160;26.100;2024-01-07T04:49:20;16.55;;;3.45;;
56401;SDS011;42299;35.160;26.100;2024-01-07T04:54:44;18.27;;;3.85;;
56401;SDS011;42299;35.160;26.100;2024-01-07T05:00:07;17.48;;;3.90;;
56401;SDS011;42299;35.160;26.100;2024-01-07T05:05:30;10.05;;;3.25;;
56401;SDS011;42299;35.160;26.100;2024-01-07T05:10:54;17.35;;;3.80;;
56401;SDS011;42299;35.160;26.100;2024-01-07T05:16:19;13.18;;;2.83;;
56401;SDS011;42299;35.160;26.100;2024-01-07T05:21:42;14.82;;;2.90;;
56401;SDS011;42299;35.160;26.100;2024-01-07T05:27:06;7.53;;;2.40;;
56401;SDS011;42299;35.160;26.100;2024-01-07T05:32:29;21.20;;;3.30;;
56401;SDS011;42299;35.160;26.100;2024-01-07T05:37:51;14.43;;;2.85;;
56401;SDS011;42299;35.160;26.100;2024-01-07T05:43:15;17.83;;;3.20;;
56401;SDS011;42299;35.160;26.100;2024-01-07T05:48:41;26.80;;;4.25;;
56401;SDS011;42299;35.160;26.100;2024-01-07T05:54:05;19.23;;;3.38;;
56401;SDS011;42299;35.160;26.100;2024-01-07T05:59:29;22.70;;;3.92;;
56401;SDS011;42299;35.160;26.100;2024-01-07T06:04:51;22.98;;;3.47;;
56401;SDS011;42299;35.160;26.100;2024-01-07T06:10:14;25.55;;;4.38;;
56401;SDS011;42299;35.160;26.100;2024-01-07T06:15:38;20.33;;;3.70;;
56401;SDS011;42299;35.160;26.100;2024-01-07T06:21:01;17.85;;;3.85;;
56401;SDS011;42299;35.160;26.100;2024-01-07T06:26:24;22.85;;;5.50;;
56401;SDS011;42299;35.160;26.100;2024-01-07T06:31:48;30.40;;;5.10;;
56401;SDS011;42299;35.160;26.100;2024-01-07T06:37:10;22.50;;;4.30;;
56401;SDS011;42299;35.160;26.100;2024-01-07T06:42:33;23.40;;;5.10;;
56401;SDS011;42299;35.160;26.100;2024-01-07T06:47:57;30.95;;;4.82;;
56401;SDS011;42299;35.160;26.100;2024-01-07T06:53:19;28.23;;;4.50;;
56401;SDS011;42299;35.160;26.100;2024-01-07T06:58:42;21.95;;;4.53;;
56401;SDS011;42299;35.160;26.100;2024-01-07T07:04:07;33.10;;;5.95;;
56401;SDS011;42299;35.160;26.100;2024-01-07T07:09:29;23.85;;;5.72;;
56401;SDS011;42299;35.160;26.100;2024-01-07T07:14:51;30.65;;;5.20;;
56401;SDS011;42299;35.160;26.100;2024-01-07T07:20:15;20.88;;;4.85;;
56401;SDS011;42299;35.160;26.100;2024-01-07T07:25:37;30.27;;;7.28;;
56401;SDS011;42299;35.160;26.100;2024-01-07T07:31:00;26.10;;;4.38;;
56401;SDS011;42299;35.160;26.100;2024-01-07T07:36:24;27.42;;;5.45;;
56401;SDS011;42299;35.160;26.100;2024-01-07T07:41:46;34.60;;;5.35;;
56401;SDS011;42299;35.160;26.100;2024-01-07T07:47:09;21.45;;;4.63;;
56401;SDS011;42299;35.160;26.100;2024-01-07T07:52:34;25.65;;;6.00;;
56401;SDS011;42299;35.160;26.100;2024-01-07T07:57:57;53.13;;;8.88;;
56401;SDS011;42299;35.160;26.100;2024-01-07T08:03:19;46.13;;;7.35;;
56401;SDS011;42299;35.160;26.100;2024-01-07T08:08:43;40.63;;;8.15;;
56401;SDS011;42299;35.160;26.100;2024-01-07T08:14:06;56.00;;;7.60;;
56401;SDS011;42299;35.160;26.100;2024-01-07T08:19:29;50.63;;;5.97;;
56401;SDS011;42299;35.160;26.100;2024-01-07T08:24:53;63.50;;;8.00;;
56401;SDS011;42299;35.160;26.100;2024-01-07T08:30:16;51.65;;;6.78;;
56401;SDS011;42299;35.160;26.100;2024-01-07T08:35:38;40.70;;;5.82;;
56401;SDS011;42299;35.160;26.100;2024-01-07T08:41:02;64.53;;;7.60;;
56401;SDS011;42299;35.160;26.100;2024-01-07T08:46:25;74.10;;;8.00;;
56401;SDS011;42299;35.160;26.100;2024-01-07T08:51:47;46.30;;;6.63;;
56401;SDS011;42299;35.160;26.100;2024-01-07T08:57:11;52.03;;;7.15;;
56401;SDS011;42299;35.160;26.100;2024-01-07T09:02:34;59.92;;;7.07;;
56401;SDS011;42299;35.160;26.100;2024-01-07T09:07:56;51.42;;;6.50;;
56401;SDS011;42299;35.160;26.100;2024-01-07T09:13:20;70.47;;;8.02;;
56401;SDS011;42299;35.160;26.100;2024-01-07T09:18:42;63.30;;;7.72;;
56401;SDS011;42299;35.160;26.100;2024-01-07T09:24:05;63.35;;;8.13;;
56401;SDS011;42299;35.160;26.100;2024-01-07T09:29:30;69.75;;;9.07;;
56401;SDS011;42299;35.160;26.100;2024-01-07T09:34:53;95.20;;;9.52;;
56401;SDS011;42299;35.160;26.100;2024-01-07T09:40:17;87.70;;;10.68;;
56401;SDS011;42299;35.160;26.100;2024-01-07T09:45:44;63.85;;;6.85;;
56401;SDS011;42299;35.160;26.100;2024-01-07T09:51:09;91.97;;;10.20;;
56401;SDS011;42299;35.160;26.100;2024-01-07T09:56:35;93.80;;;10.38;;
56401;SDS011;42299;35.160;26.100;2024-01-07T10:02:04;91.47;;;10.23;;
56401;SDS011;42299;35.160;26.100;2024-01-07T10:07:26;97.00;;;11.23;;
56401;SDS011;42299;35.160;26.100;2024-01-07T10:12:48;89.68;;;12.00;;
56401;SDS011;42299;35.160;26.100;2024-01-07T10:18:15;97.25;;;11.93;;
56401;SDS011;42299;35.160;26.100;2024-01-07T10:23:37;86.75;;;10.50;;
56401;SDS011;42299;35.160;26.100;2024-01-07T10:29:00;123.93;;;12.77;;
56401;SDS011;42299;35.160;26.100;2024-01-07T10:34:24;97.57;;;10.13;;
56401;SDS011;42299;35.160;26.100;2024-01-07T10:39:48;112.35;;;13.60;;
56401;SDS011;42299;35.160;26.100;2024-01-07T10:45:11;100.47;;;10.43;;
56401;SDS011;42299;35.160;26.100;2024-01-07T10:50:37;107.53;;;12.65;;
56401;SDS011;42299;35.160;26.100;2024-01-07T10:56:00;111.55;;;10.90;;
56401;SDS011;42299;35.160;26.100;2024-01-07T11:01:27;120.63;;;12.15;;
56401;SDS011;42299;35.160;26.100;2024-01-07T11:06:52;99.53;;;10.55;;
56401;SDS011;42299;35.160;26.100;2024-01-07T11:12:21;93.85;;;10.43;;
56401;SDS011;42299;35.160;26.100;2024-01-07T11:17:44;65.80;;;7.47;;
56401;SDS011;42299;35.160;26.100;2024-01-07T11:23:27;83.05;;;10.15;;
56401;SDS011;42299;35.160;26.100;2024-01-07T11:28:51;58.30;;;8.18;;
56401;SDS011;42299;35.160;26.100;2024-01-07T11:40:14;69.72;;;8.95;;
56401;SDS011;42299;35.160;26.100;2024-01-07T11:45:36;49.08;;;5.40;;
56401;SDS011;42299;35.160;26.100;2024-01-07T11:50:59;82.18;;;9.18;;
56401;SDS011;42299;35.160;26.100;2024-01-07T11:56:23;71.78;;;9.55;;
56401;SDS011;42299;35.160;26.100;2024-01-07T12:01:46;60.88;;;6.70;;
56401;SDS011;42299;35.160;26.100;2024-01-07T12:07:09;73.82;;;9.30;;
56401;SDS011;42299;35.160;26.100;2024-01-07T12:12:36;81.20;;;10.48;;
56401;SDS011;42299;35.160;26.100;2024-01-07T12:17:59;70.22;;;9.88;;
56401;SDS011;42299;35.160;26.100;2024-01-07T12:23:22;81.30;;;9.85;;
56401;SDS011;42299;35.160;26.100;2024-01-07T12:28:51;95.07;;;12.25;;
56401;SDS011;42299;35.160;26.100;2024-01-07T12:34:14;79.13;;;13.02;;
56401;SDS011;42299;35.160;26.100;2024-01-07T12:39:38;97.47;;;10.68;;
56401;SDS011;42299;35.160;26.100;2024-01-07T12:45:01;80.95;;;10.77;;
56401;SDS011;42299;35.160;26.100;2024-01-07T12:50:24;72.40;;;10.48;;
56401;SDS011;42299;35.160;26.100;2024-01-07T12:55:48;78.18;;;9.10;;
56401;SDS011;42299;35.160;26.100;2024-01-07T13:01:18;72.25;;;8.38;;
56401;SDS011;42299;35.160;26.100;2024-01-07T13:06:42;86.57;;;10.30;;
56401;SDS011;42299;35.160;26.100;2024-01-07T13:12:04;97.93;;;10.07;;
56401;SDS011;42299;35.160;26.100;2024-01-07T13:17:28;76.50;;;10.57;;
56401;SDS011;42299;35.160;26.100;2024-01-07T13:22:53;85.53;;;10.23;;
56401;SDS011;42299;35.160;26.100;2024-01-07T13:28:16;91.05;;;10.98;;
56401;SDS011;42299;35.160;26.100;2024-01-07T13:33:42;91.78;;;11.63;;
56401;SDS011;42299;35.160;26.100;2024-01-07T13:39:04;113.43;;;13.27;;
56401;SDS011;42299;35.160;26.100;2024-01-07T13:44:28;81.55;;;10.48;;
56401;SDS011;42299;35.160;26.100;2024-01-07T13:49:52;66.35;;;9.40;;
56401;SDS011;42299;35.160;26.100;2024-01-07T13:55:16;87.00;;;14.93;;
56401;SDS011;42299;35.160;26.100;2024-01-07T14:00:39;65.97;;;10.93;;
56401;SDS011;42299;35.160;26.100;2024-01-07T14:06:03;60.70;;;9.23;;
56401;SDS011;42299;35.160;26.100;2024-01-07T14:11:26;41.40;;;7.07;;
56401;SDS011;42299;35.160;26.100;2024-01-07T14:16:49;44.33;;;9.57;;
56401;SDS011;42299;35.160;26.100;2024-01-07T14:22:13;56.72;;;9.88;;
56401;SDS011;42299;35.160;26.100;2024-01-07T14:27:36;53.22;;;9.55;;
56401;SDS011;42299;35.160;26.100;2024-01-07T14:32:59;45.55;;;7.18;;
56401;SDS011;42299;35.160;26.100;2024-01-07T14:38:23;57.22;;;6.82;;
56401;SDS011;42299;35.160;26.100;2024-01-07T14:43:46;44.63;;;6.38;;
56401;SDS011;42299;35.160;26.100;2024-01-07T14:49:09;48.03;;;7.28;;
56401;SDS011;42299;35.160;26.100;2024-01-07T14:54:33;39.35;;;5.85;;
56401;SDS011;42299;35.160;26.100;2024-01-07T14:59:57;49.00;;;6.00;;
56401;SDS011;42299;35.160;26.100;2024-01-07T15:05:20;31.58;;;4.22;;
56401;SDS011;42299;35.160;26.100;2024-01-07T15:10:44;24.48;;;4.15;;
56401;SDS011;42299;35.160;26.100;2024-01-07T15:16:06;25.92;;;4.25;;
56401;SDS011;42299;35.160;26.100;2024-01-07T15:21:29;31.88;;;5.28;;
56401;SDS011;42299;35.160;26.100;2024-01-07T15:26:53;30.48;;;3.78;;
56401;SDS011;42299;35.160;26.100;2024-01-07T15:32:15;26.30;;;3.63;;
56401;SDS011;42299;35.160;26.100;2024-01-07T15:37:37;32.20;;;4.32;;
56401;SDS011;42299;35.160;26.100;2024-01-07T15:43:01;32.67;;;4.03;;
56401;SDS011;42299;35.160;26.100;2024-01-07T15:48:24;23.92;;;3.67;;
56401;SDS011;42299;35.160;26.100;2024-01-07T15:53:47;27.88;;;4.68;;
56401;SDS011;42299;35.160;26.100;2024-01-07T15:59:10;30.10;;;4.53;;
56401;SDS011;42299;35.160;26.100;2024-01-07T16:04:33;28.17;;;4.47;;
56401;SDS011;42299;35.160;26.100;2024-01-07T16:09:56;24.13;;;4.30;;
56401;SDS011;42299;35.160;26.100;2024-01-07T16:15:20;24.65;;;4.28;;
56401;SDS011;42299;35.160;26.100;2024-01-07T16:20:42;24.63;;;3.95;;
56401;SDS011;42299;35.160;26.100;2024-01-07T16:26:05;20.00;;;3.45;;
56401;SDS011;42299;35.160;26.100;2024-01-07T16:31:29;23.00;;;3.75;;
56401;SDS011;42299;35.160;26.100;2024-01-07T16:36:51;22.95;;;3.47;;
56401;SDS011;42299;35.160;26.100;2024-01-07T16:42:14;22.20;;;3.53;;
56401;SDS011;42299;35.160;26.100;2024-01-07T16:47:47;25.23;;;4.10;;
56401;SDS011;42299;35.160;26.100;2024-01-07T16:53:11;17.17;;;2.90;;
56401;SDS011;42299;35.160;26.100;2024-01-07T16:58:33;22.95;;;4.78;;
56401;SDS011;42299;35.160;26.100;2024-01-07T17:03:57;29.80;;;4.47;;
56401;SDS011;42299;35.160;26.100;2024-01-07T17:09:20;20.17;;;3.35;;
56401;SDS011;42299;35.160;26.100;2024-01-07T17:14:45;26.55;;;3.92;;
56401;SDS011;42299;35.160;26.100;2024-01-07T17:20:10;22.38;;;4.22;;
56401;SDS011;42299;35.160;26.100;2024-01-07T17:25:33;16.88;;;3.85;;
56401;SDS011;42299;35.160;26.100;2024-01-07T17:30:56;23.60;;;3.53;;
56401;SDS011;42299;35.160;26.100;2024-01-07T17:36:20;22.83;;;4.22;;
56401;SDS011;42299;35.160;26.100;2024-01-07T17:41:42;17.45;;;3.25;;
56401;SDS011;42299;35.160;26.100;2024-01-07T17:47:05;17.88;;;3.30;;
56401;SDS011;42299;35.160;26.100;2024-01-07T17:52:29;20.15;;;3.42;;
56401;SDS011;42299;35.160;26.100;2024-01-07T17:57:52;18.25;;;2.42;;
56401;SDS011;42299;35.160;26.100;2024-01-07T18:03:14;21.20;;;3.08;;
56401;SDS011;42299;35.160;26.100;2024-01-07T18:08:39;14.75;;;2.45;;
56401;SDS011;42299;35.160;26.100;2024-01-07T18:14:01;19.63;;;2.88;;
56401;SDS011;42299;35.160;26.100;2024-01-07T18:19:23;22.70;;;3.65;;
56401;SDS011;42299;35.160;26.100;2024-01-07T18:24:47;13.85;;;3.13;;
56401;SDS011;42299;35.160;26.100;2024-01-07T18:30:10;9.95;;;2.67;;
56401;SDS011;42299;35.160;26.100;2024-01-07T18:35:33;18.08;;;3.28;;
56401;SDS011;42299;35.160;26.100;2024-01-07T18:40:58;20.45;;;3.65;;
56401;SDS011;42299;35.160;26.100;2024-01-07T18:46:20;16.42;;;2.83;;
56401;SDS011;42299;35.160;26.100;2024-01-07T18:51:42;15.52;;;3.15;;
56401;SDS011;42299;35.160;26.100;2024-01-07T18:57:08;16.05;;;2.65;;
56401;SDS011;42299;35.160;26.100;2024-01-07T19:02:32;7.90;;;1.60;;
56401;SDS011;42299;35.160;26.100;2024-01-07T19:07:55;21.33;;;2.83;;
56401;SDS011;42299;35.160;26.100;2024-01-07T19:13:19;18.67;;;3.33;;
56401;SDS011;42299;35.160;26.100;2024-01-07T19:18:42;11.32;;;2.08;;
56401;SDS011;42299;35.160;26.100;2024-01-07T19:24:05;15.23;;;2.20;;
56401;SDS011;42299;35.160;26.100;2024-01-07T19:29:29;9.50;;;2.28;;
56401;SDS011;42299;35.160;26.100;2024-01-07T19:34:51;15.25;;;2.60;;
56401;SDS011;42299;35.160;26.100;2024-01-07T19:40:15;13.88;;;2.25;;
56401;SDS011;42299;35.160;26.100;2024-01-07T19:45:39;8.95;;;2.40;;
56401;SDS011;42299;35.160;26.100;2024-01-07T19:51:03;10.07;;;1.83;;
56401;SDS011;42299;35.160;26.100;2024-01-07T19:56:26;15.80;;;2.75;;
56401;SDS011;42299;35.160;26.100;2024-01-07T20:01:50;13.75;;;2.35;;
56401;SDS011;42299;35.160;26.100;2024-01-07T20:07:12;11.77;;;2.10;;
56401;SDS011;42299;35.160;26.100;2024-01-07T20:12:34;13.63;;;2.33;;
56401;SDS011;42299;35.160;26.100;2024-01-07T20:17:59;14.95;;;2.20;;
56401;SDS011;42299;35.160;26.100;2024-01-07T20:23:21;18.08;;;2.28;;
56401;SDS011;42299;35.160;26.100;2024-01-07T20:28:44;12.23;;;2.50;;
56401;SDS011;42299;35.160;26.100;2024-01-07T20:34:08;9.80;;;2.00;;
56401;SDS011;42299;35.160;26.100;2024-01-07T20:39:31;18.98;;;2.55;;
56401;SDS011;42299;35.160;26.100;2024-01-07T20:44:53;16.88;;;2.47;;
56401;SDS011;42299;35.160;26.100;2024-01-07T20:50:18;24.60;;;2.67;;
56401;SDS011;42299;35.160;26.100;2024-01-07T20:55:41;15.80;;;3.72;;
56401;SDS011;42299;35.160;26.100;2024-01-07T21:01:03;12.85;;;2.95;;
56401;SDS011;42299;35.160;26.100;2024-01-07T21:06:28;19.40;;;3.30;;
56401;SDS011;42299;35.160;26.100;2024-01-07T21:11:50;14.85;;;2.80;;
56401;SDS011;42299;35.160;26.100;2024-01-07T21:17:13;15.77;;;2.72;;
56401;SDS011;42299;35.160;26.100;2024-01-07T21:22:37;15.48;;;2.53;;
56401;SDS011;42299;35.160;26.100;2024-01-07T21:28:00;15.68;;;3.17;;
56401;SDS011;42299;35.160;26.100;2024-01-07T21:33:24;13.63;;;2.80;;
56401;SDS011;42299;35.160;26.100;2024-01-07T21:38:48;14.93;;;2.75;;
56401;SDS011;42299;35.160;26.100;2024-01-07T21:44:11;12.45;;;2.25;;
56401;SDS011;42299;35.160;26.100;2024-01-07T21:49:34;15.82;;;2.70;;
56401;SDS011;42299;35.160;26.100;2024-01-07T21:54:58;29.00;;;10.68;;
56401;SDS011;42299;35.160;26.100;2024-01-07T22:00:21;24.67;;;2.55;;
56401;SDS011;42299;35.160;26.100;2024-01-07T22:05:45;20.67;;;2.80;;
56401;SDS011;42299;35.160;26.100;2024-01-07T22:11:12;17.15;;;2.42;;
56401;SDS011;42299;35.160;26.100;2024-01-07T22:16:35;18.27;;;3.03;;
56401;SDS011;42299;35.160;26.100;2024-01-07T22:21:57;18.38;;;3.63;;
56401;SDS011;42299;35.160;26.100;2024-01-07T22:27:22;18.55;;;4.38;;
56401;SDS011;42299;35.160;26.100;2024-01-07T22:32:44;22.67;;;4.30;;
56401;SDS011;42299;35.160;26.100;2024-01-07T22:38:07;21.33;;;4.07;;
56401;SDS011;42299;35.160;26.100;2024-01-07T22:43:31;16.60;;;3.15;;
56401;SDS011;42299;35.160;26.100;2024-01-07T22:48:53;18.23;;;2.88;;
56401;SDS011;42299;35.160;26.100;2024-01-07T22:54:16;23.20;;;3.10;;
56401;SDS011;42299;35.160;26.100;2024-01-07T22:59:40;30.25;;;3.30;;
56401;SDS011;42299;35.160;26.100;2024-01-07T23:05:02;20.90;;;3.75;;
56401;SDS011;42299;35.160;26.100;2024-01-07T23:10:26;17.63;;;2.97;;
56401;SDS011;42299;35.160;26.100;2024-01-07T23:15:50;21.45;;;2.50;;
56401;SDS011;42299;35.160;26.100;2024-01-07T23:21:12;12.30;;;1.90;;
56401;SDS011;42299;35.160;26.100;2024-01-07T23:26:35;16.88;;;2.20;;
56401;SDS011;42299;35.160;26.100;2024-01-07T23:31:59;18.23;;;2.95;;
56401;SDS011;42299;35.160;26.100;2024-01-07T23:37:21;17.13;;;2.97;;
56401;SDS011;42299;35.160;26.100;2024-01-07T23:42:45;24.27;;;2.92;;
56401;SDS011;42299;35.160;26.100;2024-01-07T23:48:10;20.45;;;2.83;;
56401;SDS011;42299;35.160;26.100;2024-01-07T23:53:32;15.85;;;2.40;;
56401;SDS011;42299;35.160;26.100;2024-01-07T23:58:55;20.42;;;2.80;;
